Kemptville, Canada
Current Conditions -  °F | °C
As of 9:46 PM on Sunday 21 Dec 2014 (Local Time) from CYOW Reporting Station
Light Snow Light Snow  
Wind Chill:   Ceiling: 500
Heat Index: 16°   Visibility: 2.5mi
Dew Point: 14°   Wind: 7mph
Humidity: 93%   Direction: 70°ENE
Pressure: 30.38"   Gusts: NA
Location:  45.02°N, 75.65°W
Report Text: CYOW 220246Z 07006KT 2 1/2SM -SG BR OVC005 M09/M10 A3038 RMK FG2ST6 SLP298
Loading
Personal Weather Stations






























Interactive Weather Map New forecast layout! Learn more

10-Day Weather Forecast

Advertisements
Track Severe Weather on mobile